createdAt,value
2023-08-31T00:02:18.611Z,6.57
2023-08-31T00:04:46.538Z,5.05
2023-08-31T00:07:14.382Z,4.25
2023-08-31T00:09:42.388Z,5.53
2023-08-31T00:12:10.343Z,5.90
2023-08-31T00:14:38.410Z,4.28
2023-08-31T00:17:07.677Z,6.32
2023-08-31T00:19:36.489Z,5.60
2023-08-31T00:22:05.031Z,5.75
2023-08-31T00:24:37.725Z,4.65
2023-08-31T00:27:07.740Z,4.72
2023-08-31T00:32:04.199Z,7.28
2023-08-31T00:34:33.452Z,7.28
2023-08-31T00:37:01.367Z,7.30
2023-08-31T00:39:29.155Z,5.93
2023-08-31T00:41:57.022Z,5.78
2023-08-31T00:44:25.440Z,6.88
2023-08-31T00:46:53.829Z,5.15
2023-08-31T00:49:21.743Z,6.13
2023-08-31T00:51:51.912Z,5.22
2023-08-31T00:54:20.381Z,4.85
2023-08-31T00:56:48.209Z,6.90
2023-08-31T00:59:17.384Z,5.05
2023-08-31T01:01:56.601Z,5.85
2023-08-31T01:04:34.279Z,6.63
2023-08-31T01:07:10.013Z,6.75
2023-08-31T01:09:46.352Z,7.05
2023-08-31T01:12:19.206Z,6.55
2023-08-31T01:14:52.749Z,6.80
2023-08-31T01:17:24.404Z,5.47
2023-08-31T01:19:54.417Z,6.15
2023-08-31T01:25:02.373Z,4.90
2023-08-31T01:27:31.412Z,7.22
2023-08-31T01:29:59.422Z,6.50
2023-08-31T01:32:27.498Z,5.40
2023-08-31T01:34:55.625Z,8.05
2023-08-31T01:37:33.078Z,6.05
2023-08-31T01:40:08.525Z,6.82
2023-08-31T01:42:37.254Z,5.07
2023-08-31T01:45:06.497Z,4.50
2023-08-31T01:47:34.511Z,6.97
2023-08-31T01:50:02.944Z,7.75
2023-08-31T01:52:31.572Z,6.47
2023-08-31T01:54:59.567Z,6.40
2023-08-31T01:57:28.709Z,5.13
2023-08-31T01:59:56.559Z,6.67
2023-08-31T02:02:24.386Z,6.00
2023-08-31T02:04:52.885Z,6.38
2023-08-31T02:07:20.740Z,6.22
2023-08-31T02:09:48.604Z,6.68
2023-08-31T02:12:16.421Z,6.70
2023-08-31T02:14:45.660Z,7.00
2023-08-31T02:17:13.551Z,5.57
2023-08-31T02:19:41.466Z,6.70
2023-08-31T02:22:10.245Z,6.78
2023-08-31T02:24:38.023Z,4.68
2023-08-31T02:27:06.321Z,7.40
2023-08-31T02:29:34.610Z,5.03
2023-08-31T02:32:06.384Z,7.65
2023-08-31T02:34:34.171Z,6.53
2023-08-31T02:37:01.942Z,5.60
2023-08-31T02:39:29.782Z,5.10
2023-08-31T02:41:57.993Z,6.38
2023-08-31T02:44:25.886Z,5.72
2023-08-31T02:46:53.810Z,5.35
2023-08-31T02:49:23.171Z,5.95
2023-08-31T02:51:51.080Z,5.80
2023-08-31T02:54:20.280Z,4.85
2023-08-31T02:56:48.160Z,6.13
2023-08-31T02:59:16.060Z,6.18
2023-08-31T03:01:47.268Z,5.82
2023-08-31T03:04:15.339Z,6.30
2023-08-31T03:06:44.524Z,6.18
2023-08-31T03:09:12.428Z,4.80
2023-08-31T03:11:40.262Z,5.22
2023-08-31T03:14:08.066Z,3.95
2023-08-31T03:16:35.956Z,4.47
2023-08-31T03:19:03.898Z,4.32
2023-08-31T03:21:31.740Z,4.78
2023-08-31T03:24:01.980Z,5.00
2023-08-31T03:26:29.856Z,5.10
2023-08-31T03:28:57.929Z,5.28
2023-08-31T03:31:25.738Z,5.22
2023-08-31T03:33:53.522Z,5.28
2023-08-31T03:36:21.460Z,4.00
2023-08-31T03:38:49.266Z,5.53
2023-08-31T03:41:18.495Z,4.75
2023-08-31T03:43:46.346Z,3.67
2023-08-31T03:46:14.325Z,5.63
2023-08-31T03:48:42.301Z,4.88
2023-08-31T03:51:10.060Z,3.65
2023-08-31T03:53:37.914Z,5.32
2023-08-31T03:56:06.075Z,4.15
2023-08-31T03:58:35.269Z,3.88
2023-08-31T04:01:03.166Z,8.00
2023-08-31T04:03:31.070Z,7.43
2023-08-31T04:05:58.921Z,4.75
2023-08-31T04:08:26.887Z,5.80
2023-08-31T04:10:54.728Z,6.10
2023-08-31T04:13:22.710Z,5.32
2023-08-31T04:15:52.061Z,5.55
2023-08-31T04:18:20.005Z,5.28
2023-08-31T04:20:52.897Z,5.85
2023-08-31T04:23:21.634Z,5.45
2023-08-31T04:25:52.427Z,5.07
2023-08-31T04:28:20.505Z,3.78
2023-08-31T04:30:48.420Z,5.47
2023-08-31T04:33:18.277Z,3.78
2023-08-31T04:35:46.194Z,4.03
2023-08-31T04:38:14.022Z,4.03
2023-08-31T04:40:41.970Z,4.32
2023-08-31T04:43:09.880Z,6.07
2023-08-31T04:45:38.046Z,4.82
2023-08-31T04:48:06.586Z,5.47
2023-08-31T04:50:35.791Z,5.00
2023-08-31T04:53:04.589Z,7.00
2023-08-31T04:55:32.660Z,10.13
2023-08-31T04:58:00.497Z,11.25
2023-08-31T05:00:28.295Z,12.13
2023-08-31T05:02:56.228Z,15.40
2023-08-31T05:05:24.085Z,10.88
2023-08-31T05:07:53.215Z,9.20
2023-08-31T05:10:21.057Z,10.23
2023-08-31T05:12:48.816Z,6.43
2023-08-31T05:15:17.230Z,7.15
2023-08-31T05:17:45.130Z,10.93
2023-08-31T05:20:13.798Z,8.50
2023-08-31T05:22:41.656Z,11.15
2023-08-31T05:25:10.945Z,6.40
2023-08-31T05:27:38.731Z,9.80
2023-08-31T05:30:07.588Z,9.65
2023-08-31T05:32:36.077Z,6.78
2023-08-31T05:35:04.455Z,7.00
2023-08-31T05:37:35.537Z,10.32
2023-08-31T05:40:07.134Z,7.38
2023-08-31T05:42:36.375Z,6.20
2023-08-31T05:45:05.302Z,4.30
2023-08-31T05:47:33.236Z,6.78
2023-08-31T05:50:01.166Z,6.90
2023-08-31T05:52:29.176Z,6.63
2023-08-31T05:54:57.040Z,6.95
2023-08-31T05:57:24.994Z,6.88
2023-08-31T05:59:54.136Z,7.32
2023-08-31T06:02:22.045Z,7.03
2023-08-31T06:04:50.028Z,8.35
2023-08-31T06:07:18.058Z,9.48
2023-08-31T06:09:45.895Z,10.45
2023-08-31T06:12:13.706Z,7.57
2023-08-31T06:14:41.686Z,8.18
2023-08-31T06:17:12.633Z,7.78
2023-08-31T06:19:40.468Z,8.65
2023-08-31T06:22:08.338Z,7.75
2023-08-31T06:24:37.721Z,8.63
2023-08-31T06:27:06.199Z,8.57
2023-08-31T06:29:33.980Z,7.43
2023-08-31T06:32:01.950Z,6.97
2023-08-31T06:34:31.962Z,7.57
2023-08-31T06:39:28.040Z,8.20
2023-08-31T06:41:55.851Z,9.75
2023-08-31T06:44:23.771Z,8.82
2023-08-31T06:46:51.779Z,11.32
2023-08-31T06:49:21.122Z,10.52
2023-08-31T06:51:50.302Z,8.27
2023-08-31T06:54:18.077Z,8.33
2023-08-31T06:56:45.943Z,8.50
2023-08-31T06:59:13.818Z,10.77
2023-08-31T07:01:41.673Z,10.48
2023-08-31T07:04:09.677Z,8.75
2023-08-31T07:06:37.920Z,8.30
2023-08-31T07:09:09.107Z,6.80
2023-08-31T07:11:36.944Z,8.32
2023-08-31T07:14:04.808Z,7.15
2023-08-31T07:16:32.648Z,6.90
2023-08-31T07:19:00.548Z,8.63
2023-08-31T07:21:28.437Z,6.63
2023-08-31T07:23:56.731Z,6.63
2023-08-31T07:26:26.165Z,6.50
2023-08-31T07:28:54.060Z,6.50
2023-08-31T07:31:21.880Z,6.07
2023-08-31T07:33:49.787Z,6.35
2023-08-31T07:36:17.624Z,5.53
2023-08-31T07:38:45.442Z,5.60
2023-08-31T07:41:13.310Z,5.22
2023-08-31T07:43:48.360Z,4.68
2023-08-31T07:46:22.640Z,5.30
2023-08-31T07:48:51.766Z,5.63
2023-08-31T07:51:24.098Z,6.13
2023-08-31T07:53:52.145Z,5.22
2023-08-31T07:56:20.152Z,5.55
2023-08-31T07:58:49.289Z,5.03
2023-08-31T08:01:17.324Z,5.23
2023-08-31T08:03:45.259Z,5.00
2023-08-31T08:06:13.246Z,6.07
2023-08-31T08:08:41.104Z,4.57
2023-08-31T08:11:08.971Z,4.95
2023-08-31T08:13:36.834Z,4.97
2023-08-31T08:16:06.220Z,3.78
2023-08-31T08:18:34.184Z,5.47
2023-08-31T08:21:02.425Z,4.60
2023-08-31T08:23:30.288Z,4.38
2023-08-31T08:26:00.177Z,3.63
2023-08-31T08:28:29.141Z,3.53
2023-08-31T08:30:57.230Z,5.63
2023-08-31T08:33:26.475Z,5.90
2023-08-31T08:35:58.357Z,3.42
2023-08-31T08:38:27.075Z,5.13
2023-08-31T08:40:54.955Z,6.40
2023-08-31T08:43:28.004Z,8.40
2023-08-31T08:45:59.898Z,4.53
2023-08-31T08:48:29.445Z,5.22
2023-08-31T08:50:57.914Z,4.35
2023-08-31T08:53:25.729Z,3.88
2023-08-31T08:55:53.568Z,4.75
2023-08-31T08:58:21.371Z,6.68
2023-08-31T09:00:49.977Z,4.38
2023-08-31T09:03:18.096Z,4.65
2023-08-31T09:05:48.057Z,3.70
2023-08-31T09:08:16.557Z,3.70
2023-08-31T09:10:45.915Z,5.88
2023-08-31T09:13:16.550Z,3.28
2023-08-31T09:15:46.149Z,3.10
2023-08-31T09:18:18.470Z,2.92
2023-08-31T09:20:48.859Z,3.28
2023-08-31T09:23:17.142Z,4.82
2023-08-31T09:25:45.902Z,3.95
2023-08-31T09:28:14.836Z,3.92
2023-08-31T09:30:44.655Z,2.97
2023-08-31T09:33:17.478Z,4.63
2023-08-31T09:35:52.464Z,2.10
2023-08-31T09:38:20.962Z,2.60
2023-08-31T09:40:48.782Z,3.97
2023-08-31T09:43:22.828Z,2.78
2023-08-31T09:45:51.760Z,2.95
2023-08-31T09:48:19.891Z,3.10
2023-08-31T09:50:48.266Z,3.03
2023-08-31T09:53:18.855Z,2.78
2023-08-31T09:55:48.312Z,2.88
2023-08-31T09:58:19.667Z,3.85
2023-08-31T10:00:48.312Z,3.22
2023-08-31T10:03:18.486Z,3.00
2023-08-31T10:05:49.262Z,4.18
2023-08-31T10:08:19.792Z,3.45
2023-08-31T10:10:48.015Z,4.30
2023-08-31T10:13:17.255Z,2.50
2023-08-31T10:18:13.621Z,3.90
2023-08-31T10:20:45.253Z,3.15
2023-08-31T10:23:13.649Z,2.50
2023-08-31T10:26:05.848Z,3.35
2023-08-31T10:28:42.227Z,1.90
2023-08-31T10:31:11.938Z,4.07
2023-08-31T10:33:43.708Z,3.45
2023-08-31T10:36:14.396Z,1.77
2023-08-31T10:38:43.612Z,3.47
2023-08-31T10:41:23.485Z,2.72
2023-08-31T10:43:53.298Z,3.30
2023-08-31T10:46:28.479Z,1.52
2023-08-31T10:48:57.416Z,2.75
2023-08-31T10:51:26.763Z,1.98
2023-08-31T10:56:23.815Z,4.57
2023-08-31T10:58:59.636Z,4.32
2023-08-31T11:01:54.643Z,3.80
2023-08-31T11:04:23.081Z,1.83
2023-08-31T11:06:51.209Z,2.53
2023-08-31T11:09:23.216Z,1.90
2023-08-31T11:11:52.401Z,1.95
2023-08-31T11:14:20.301Z,1.38
2023-08-31T11:16:48.190Z,2.40
2023-08-31T11:19:16.217Z,1.50
2023-08-31T11:21:44.759Z,2.88
2023-08-31T11:24:12.864Z,2.60
2023-08-31T11:26:40.977Z,1.02
2023-08-31T11:29:10.458Z,1.15
2023-08-31T11:31:41.290Z,1.92
2023-08-31T11:34:13.698Z,2.05
2023-08-31T11:36:42.872Z,1.70
2023-08-31T11:39:11.680Z,2.00
2023-08-31T11:41:42.601Z,1.65
2023-08-31T11:44:13.582Z,1.90
2023-08-31T11:46:43.987Z,2.05
2023-08-31T11:49:12.303Z,1.73
2023-08-31T11:51:42.543Z,0.57
2023-08-31T11:54:10.431Z,2.28
2023-08-31T11:56:41.744Z,1.98
2023-08-31T11:59:13.090Z,1.70
2023-08-31T12:01:42.685Z,1.10
2023-08-31T12:04:14.770Z,0.73
2023-08-31T12:06:44.810Z,1.73
2023-08-31T12:09:12.914Z,2.30
2023-08-31T12:11:40.784Z,1.17
2023-08-31T12:14:22.329Z,0.75
2023-08-31T12:16:50.680Z,1.63
2023-08-31T12:19:18.607Z,1.98
2023-08-31T12:21:48.367Z,2.20
2023-08-31T12:24:18.104Z,2.95
2023-08-31T12:26:46.066Z,1.23
2023-08-31T12:29:13.966Z,1.20
2023-08-31T12:31:44.463Z,1.20
2023-08-31T12:34:12.285Z,1.42
2023-08-31T12:36:41.957Z,1.33
2023-08-31T12:39:10.648Z,2.55
2023-08-31T12:41:39.145Z,2.03
2023-08-31T12:44:07.406Z,1.70
2023-08-31T12:46:35.910Z,2.95
2023-08-31T12:49:05.633Z,2.03
2023-08-31T12:51:33.579Z,2.90
2023-08-31T12:54:01.392Z,3.33
2023-08-31T12:56:29.200Z,3.50
2023-08-31T12:58:57.075Z,3.47
2023-08-31T13:01:25.101Z,4.07
2023-08-31T13:03:53.566Z,1.85
2023-08-31T13:06:25.443Z,2.53
2023-08-31T13:08:53.302Z,2.63
2023-08-31T13:11:24.475Z,1.42
2023-08-31T13:13:53.446Z,2.15
2023-08-31T13:16:23.147Z,2.60
2023-08-31T13:18:50.938Z,2.55
2023-08-31T13:21:18.805Z,2.88
2023-08-31T13:23:47.977Z,3.65
2023-08-31T13:26:15.738Z,3.17
2023-08-31T13:28:44.470Z,4.88
2023-08-31T13:31:13.088Z,3.05
2023-08-31T13:33:41.244Z,3.08
2023-08-31T13:36:10.349Z,1.80
2023-08-31T13:38:38.315Z,2.42
2023-08-31T13:41:08.833Z,2.40
2023-08-31T13:43:36.739Z,3.80
2023-08-31T13:46:05.345Z,2.95
2023-08-31T13:48:33.844Z,2.33
2023-08-31T13:51:01.862Z,5.10
2023-08-31T13:53:29.739Z,5.90
2023-08-31T13:55:57.893Z,4.40
2023-08-31T13:58:27.110Z,2.58
2023-08-31T14:00:55.081Z,1.92
2023-08-31T14:03:24.344Z,2.15
2023-08-31T14:05:52.326Z,3.72
2023-08-31T14:08:20.290Z,2.88
2023-08-31T14:10:48.213Z,7.80
2023-08-31T14:13:17.169Z,5.70
2023-08-31T14:15:48.455Z,4.40
2023-08-31T14:18:16.884Z,2.70
2023-08-31T14:20:45.159Z,4.13
2023-08-31T14:23:13.172Z,3.45
2023-08-31T14:25:40.928Z,3.75
2023-08-31T14:28:08.814Z,5.57
2023-08-31T14:30:38.584Z,4.22
2023-08-31T14:33:07.933Z,4.78
2023-08-31T14:35:38.979Z,8.70
2023-08-31T14:38:07.021Z,3.65
2023-08-31T14:40:36.332Z,4.07
2023-08-31T14:43:16.160Z,6.47
2023-08-31T14:45:44.263Z,4.25
2023-08-31T14:48:13.706Z,5.32
2023-08-31T14:50:44.714Z,2.63
2023-08-31T14:53:12.694Z,3.38
2023-08-31T14:55:40.550Z,3.20
2023-08-31T14:58:10.286Z,2.13
2023-08-31T15:00:38.428Z,5.38
2023-08-31T15:03:06.959Z,4.03
2023-08-31T15:05:36.807Z,2.95
2023-08-31T15:10:33.960Z,2.17
2023-08-31T15:13:02.164Z,2.05
2023-08-31T15:15:30.056Z,3.92
2023-08-31T15:17:58.013Z,2.58
2023-08-31T15:20:26.646Z,1.90
2023-08-31T15:22:56.206Z,2.95
2023-08-31T15:27:51.635Z,4.25
2023-08-31T15:30:19.585Z,2.97
2023-08-31T15:32:47.431Z,3.58
2023-08-31T15:35:17.040Z,2.65
2023-08-31T15:40:18.129Z,3.58
2023-08-31T15:42:45.928Z,4.38
2023-08-31T15:45:13.745Z,2.45
2023-08-31T15:47:41.630Z,3.65
2023-08-31T15:50:10.256Z,3.58
2023-08-31T15:52:38.993Z,4.05
2023-08-31T15:55:07.802Z,5.33
2023-08-31T15:57:38.251Z,2.58
2023-08-31T16:00:09.036Z,3.40
2023-08-31T16:02:37.014Z,4.90
2023-08-31T16:05:08.505Z,4.93
2023-08-31T16:07:38.741Z,3.67
2023-08-31T16:10:07.830Z,4.57
2023-08-31T16:12:37.092Z,3.15
2023-08-31T16:15:05.635Z,3.65
2023-08-31T16:17:33.672Z,4.07
2023-08-31T16:20:01.493Z,4.55
2023-08-31T16:22:29.305Z,4.40
2023-08-31T16:24:57.145Z,5.57
2023-08-31T16:27:25.049Z,2.92
2023-08-31T16:29:54.336Z,3.72
2023-08-31T16:32:22.336Z,2.95
2023-08-31T16:34:53.688Z,3.00
2023-08-31T16:37:21.640Z,2.42
2023-08-31T16:39:51.934Z,3.42
2023-08-31T16:42:19.942Z,2.60
2023-08-31T16:44:47.885Z,3.40
2023-08-31T16:47:17.016Z,4.40
2023-08-31T16:49:45.368Z,2.50
2023-08-31T16:52:13.659Z,3.78
2023-08-31T16:54:41.462Z,3.13
2023-08-31T16:57:09.301Z,3.95
2023-08-31T16:59:37.108Z,4.32
2023-08-31T17:02:05.092Z,2.97
2023-08-31T17:04:34.378Z,2.95
2023-08-31T17:07:02.178Z,2.90
2023-08-31T17:09:30.868Z,2.60
2023-08-31T17:12:00.292Z,3.13
2023-08-31T17:14:28.336Z,5.15
2023-08-31T17:16:56.151Z,3.20
2023-08-31T17:19:23.950Z,3.15
2023-08-31T17:21:53.174Z,3.13
2023-08-31T17:24:21.021Z,3.53
2023-08-31T17:26:48.843Z,2.38
2023-08-31T17:29:16.713Z,2.45
2023-08-31T17:31:45.935Z,3.35
2023-08-31T17:34:17.368Z,3.40
2023-08-31T17:36:45.746Z,3.95
2023-08-31T17:39:15.040Z,3.30
2023-08-31T17:41:42.957Z,3.38
2023-08-31T17:44:10.855Z,2.83
2023-08-31T17:46:38.754Z,3.08
2023-08-31T17:49:06.702Z,2.53
2023-08-31T17:51:34.653Z,4.75
2023-08-31T17:54:02.577Z,2.72
2023-08-31T17:56:33.163Z,2.50
2023-08-31T17:59:01.032Z,2.88
2023-08-31T18:01:29.009Z,3.20
2023-08-31T18:03:56.889Z,4.10
2023-08-31T18:06:24.778Z,3.30
2023-08-31T18:08:52.817Z,2.30
2023-08-31T18:11:20.722Z,3.30
2023-08-31T18:13:49.989Z,3.90
2023-08-31T18:16:18.146Z,4.20
2023-08-31T18:18:46.133Z,2.53
2023-08-31T18:21:13.947Z,2.45
2023-08-31T18:23:42.394Z,4.15
2023-08-31T18:26:10.239Z,2.72
2023-08-31T18:28:38.631Z,2.35
2023-08-31T18:31:07.969Z,4.28
2023-08-31T18:33:37.422Z,4.50
2023-08-31T18:36:05.656Z,3.55
2023-08-31T18:38:33.537Z,3.50
2023-08-31T18:41:04.438Z,3.95
2023-08-31T18:43:32.540Z,5.05
2023-08-31T18:46:00.419Z,5.05
2023-08-31T18:48:30.867Z,5.00
2023-08-31T18:50:59.763Z,4.28
2023-08-31T18:53:28.139Z,3.10
2023-08-31T18:56:01.917Z,3.97
2023-08-31T18:58:30.003Z,3.20
2023-08-31T19:01:00.555Z,3.05
2023-08-31T19:03:29.994Z,3.10
2023-08-31T19:05:58.113Z,3.35
2023-08-31T19:08:25.939Z,3.25
2023-08-31T19:10:53.860Z,2.85
2023-08-31T19:13:21.724Z,4.13
2023-08-31T19:15:49.649Z,3.33
2023-08-31T19:18:17.687Z,3.55
2023-08-31T19:20:47.388Z,4.07
2023-08-31T19:23:15.208Z,4.30
2023-08-31T19:25:43.003Z,4.40
2023-08-31T19:28:11.031Z,4.60
2023-08-31T19:30:39.552Z,4.38
2023-08-31T19:33:07.451Z,3.85
2023-08-31T19:38:07.963Z,4.03
2023-08-31T19:40:35.768Z,5.15
2023-08-31T19:43:03.722Z,4.70
2023-08-31T19:45:31.972Z,5.25
2023-08-31T19:48:00.042Z,5.13
2023-08-31T19:50:28.972Z,4.65
2023-08-31T19:52:56.796Z,4.28
2023-08-31T19:55:26.001Z,4.57
2023-08-31T19:57:53.844Z,5.47
2023-08-31T20:00:23.465Z,6.70
2023-08-31T20:05:20.099Z,4.75
2023-08-31T20:07:49.191Z,4.25
2023-08-31T20:10:18.008Z,4.50
2023-08-31T20:12:47.281Z,3.80
2023-08-31T20:15:15.178Z,4.47
2023-08-31T20:17:43.964Z,4.90
2023-08-31T20:20:14.027Z,4.63
2023-08-31T20:25:10.856Z,4.03
2023-08-31T20:27:39.982Z,4.80
2023-08-31T20:30:11.862Z,2.67
2023-08-31T20:32:40.045Z,5.32
2023-08-31T20:35:08.601Z,4.45
2023-08-31T20:37:36.578Z,5.03
2023-08-31T20:40:08.893Z,3.65
2023-08-31T20:42:36.866Z,3.22
2023-08-31T20:45:06.251Z,4.40
2023-08-31T20:47:35.435Z,3.60
2023-08-31T20:50:05.176Z,4.28
2023-08-31T20:52:34.391Z,2.63
2023-08-31T20:55:08.478Z,3.67
2023-08-31T20:57:36.473Z,3.55
2023-08-31T21:00:05.385Z,3.05
2023-08-31T21:02:33.351Z,3.80
2023-08-31T21:05:04.653Z,3.50
2023-08-31T21:07:32.572Z,2.88
2023-08-31T21:10:00.512Z,3.92
2023-08-31T21:12:28.342Z,3.95
2023-08-31T21:14:56.300Z,4.05
2023-08-31T21:17:24.271Z,5.32
2023-08-31T21:19:52.162Z,2.95
2023-08-31T21:22:21.456Z,3.55
2023-08-31T21:24:49.242Z,4.32
2023-08-31T21:27:17.110Z,3.95
2023-08-31T21:29:45.009Z,4.13
2023-08-31T21:32:12.832Z,4.03
2023-08-31T21:34:42.204Z,4.63
2023-08-31T21:37:10.008Z,3.17
2023-08-31T21:39:39.283Z,4.35
2023-08-31T21:42:07.122Z,3.45
2023-08-31T21:44:34.909Z,4.20
2023-08-31T21:47:03.363Z,2.80
2023-08-31T21:49:31.351Z,3.42
2023-08-31T21:51:59.595Z,3.70
2023-08-31T21:54:27.382Z,2.67
2023-08-31T21:56:56.847Z,2.85
2023-08-31T21:59:24.609Z,3.03
2023-08-31T22:01:52.468Z,3.72
2023-08-31T22:04:20.608Z,3.47
2023-08-31T22:06:48.985Z,4.13
2023-08-31T22:09:17.134Z,3.55
2023-08-31T22:11:45.169Z,3.80
2023-08-31T22:14:14.838Z,2.83
2023-08-31T22:16:43.153Z,3.90
2023-08-31T22:19:11.308Z,3.25
2023-08-31T22:21:39.514Z,3.47
2023-08-31T22:24:08.070Z,4.45
2023-08-31T22:26:36.085Z,3.67
2023-08-31T22:29:04.608Z,3.33
2023-08-31T22:31:35.181Z,3.42
2023-08-31T22:34:03.543Z,3.28
2023-08-31T22:36:31.407Z,7.30
2023-08-31T22:38:59.823Z,3.15
2023-08-31T22:41:27.977Z,5.00
2023-08-31T22:43:56.168Z,4.13
2023-08-31T22:46:24.083Z,4.65
2023-08-31T22:48:54.282Z,4.25
2023-08-31T22:51:22.801Z,2.90
2023-08-31T22:53:50.619Z,2.83
2023-08-31T22:56:18.458Z,2.85
2023-08-31T22:58:46.283Z,4.32
2023-08-31T23:01:14.200Z,2.63
2023-08-31T23:03:42.167Z,3.45
2023-08-31T23:06:11.364Z,3.17
2023-08-31T23:08:40.753Z,3.50
2023-08-31T23:11:09.672Z,4.65
2023-08-31T23:13:37.877Z,4.50
2023-08-31T23:16:06.802Z,3.33
2023-08-31T23:18:34.877Z,2.92
2023-08-31T23:21:06.493Z,2.88
2023-08-31T23:23:36.305Z,5.25
2023-08-31T23:26:04.819Z,3.25
2023-08-31T23:28:33.018Z,3.75
2023-08-31T23:31:00.960Z,4.10
2023-08-31T23:33:28.822Z,4.07
2023-08-31T23:35:57.111Z,5.07
2023-08-31T23:38:26.159Z,4.30
2023-08-31T23:40:58.063Z,3.10
2023-08-31T23:43:26.284Z,2.85
2023-08-31T23:45:54.230Z,5.10
2023-08-31T23:48:22.087Z,3.33
2023-08-31T23:50:50.116Z,2.95
2023-08-31T23:53:18.438Z,3.20
2023-08-31T23:55:46.859Z,4.75
2023-08-31T23:58:16.247Z,5.07
